sensor_id;sensor_type;location;lat;lon;timestamp;P1;durP1;ratioP1;P2;durP2;ratioP2
57627;SDS011;43451;49.060;10.616;2023-09-18T00:01:47;5.13;;;4.63;;
57627;SDS011;43451;49.060;10.616;2023-09-18T00:04:12;9.20;;;5.07;;
57627;SDS011;43451;49.060;10.616;2023-09-18T00:06:38;12.05;;;5.30;;
57627;SDS011;43451;49.060;10.616;2023-09-18T00:09:03;9.60;;;5.32;;
57627;SDS011;43451;49.060;10.616;2023-09-18T00:11:29;7.22;;;5.47;;
57627;SDS011;43451;49.060;10.616;2023-09-18T00:13:54;6.00;;;4.65;;
57627;SDS011;43451;49.060;10.616;2023-09-18T00:16:20;6.15;;;4.43;;
57627;SDS011;43451;49.060;10.616;2023-09-18T00:18:46;7.05;;;4.85;;
57627;SDS011;43451;49.060;10.616;2023-09-18T00:21:12;5.22;;;4.72;;
57627;SDS011;43451;49.060;10.616;2023-09-18T00:23:37;8.07;;;5.47;;
57627;SDS011;43451;49.060;10.616;2023-09-18T00:26:03;6.20;;;5.30;;
57627;SDS011;43451;49.060;10.616;2023-09-18T00:28:29;7.85;;;6.00;;
57627;SDS011;43451;49.060;10.616;2023-09-18T00:30:54;7.55;;;5.68;;
57627;SDS011;43451;49.060;10.616;2023-09-18T00:33:20;8.88;;;5.43;;
57627;SDS011;43451;49.060;10.616;2023-09-18T00:35:49;7.38;;;4.60;;
57627;SDS011;43451;49.060;10.616;2023-09-18T00:38:16;6.97;;;4.70;;
57627;SDS011;43451;49.060;10.616;2023-09-18T00:40:42;7.93;;;4.88;;
57627;SDS011;43451;49.060;10.616;2023-09-18T00:43:08;5.80;;;4.90;;
57627;SDS011;43451;49.060;10.616;2023-09-18T00:45:34;8.00;;;5.30;;
57627;SDS011;43451;49.060;10.616;2023-09-18T00:48:05;7.40;;;5.15;;
57627;SDS011;43451;49.060;10.616;2023-09-18T00:50:31;8.43;;;5.00;;
57627;SDS011;43451;49.060;10.616;2023-09-18T00:52:57;9.10;;;5.53;;
57627;SDS011;43451;49.060;10.616;2023-09-18T00:55:23;7.07;;;4.90;;
57627;SDS011;43451;49.060;10.616;2023-09-18T00:57:49;7.03;;;5.22;;
57627;SDS011;43451;49.060;10.616;2023-09-18T01:00:15;6.88;;;5.15;;
57627;SDS011;43451;49.060;10.616;2023-09-18T01:02:43;5.97;;;4.35;;
57627;SDS011;43451;49.060;10.616;2023-09-18T01:05:10;5.40;;;4.80;;
57627;SDS011;43451;49.060;10.616;2023-09-18T01:07:35;5.15;;;4.18;;
57627;SDS011;43451;49.060;10.616;2023-09-18T01:10:01;7.20;;;4.65;;
57627;SDS011;43451;49.060;10.616;2023-09-18T01:15:22;7.22;;;5.00;;
57627;SDS011;43451;49.060;10.616;2023-09-18T01:17:55;6.28;;;4.60;;
57627;SDS011;43451;49.060;10.616;2023-09-18T01:20:21;6.65;;;5.25;;
57627;SDS011;43451;49.060;10.616;2023-09-18T01:22:46;7.72;;;4.68;;
57627;SDS011;43451;49.060;10.616;2023-09-18T01:25:14;5.68;;;5.07;;
57627;SDS011;43451;49.060;10.616;2023-09-18T01:27:40;7.45;;;5.05;;
57627;SDS011;43451;49.060;10.616;2023-09-18T01:30:07;4.93;;;4.35;;
57627;SDS011;43451;49.060;10.616;2023-09-18T01:32:32;5.88;;;4.13;;
57627;SDS011;43451;49.060;10.616;2023-09-18T01:35:02;5.80;;;4.80;;
57627;SDS011;43451;49.060;10.616;2023-09-18T01:37:31;8.20;;;4.90;;
57627;SDS011;43451;49.060;10.616;2023-09-18T01:39:56;7.47;;;5.20;;
57627;SDS011;43451;49.060;10.616;2023-09-18T01:42:24;8.70;;;5.30;;
57627;SDS011;43451;49.060;10.616;2023-09-18T01:44:51;5.93;;;4.70;;
57627;SDS011;43451;49.060;10.616;2023-09-18T01:47:18;7.85;;;5.18;;
57627;SDS011;43451;49.060;10.616;2023-09-18T01:49:46;8.20;;;5.43;;
57627;SDS011;43451;49.060;10.616;2023-09-18T01:52:11;5.93;;;4.85;;
57627;SDS011;43451;49.060;10.616;2023-09-18T01:54:37;6.70;;;5.20;;
57627;SDS011;43451;49.060;10.616;2023-09-18T01:57:03;7.25;;;6.00;;
57627;SDS011;43451;49.060;10.616;2023-09-18T01:59:29;8.75;;;6.88;;
57627;SDS011;43451;49.060;10.616;2023-09-18T02:01:55;9.00;;;6.57;;
57627;SDS011;43451;49.060;10.616;2023-09-18T02:04:21;9.25;;;6.60;;
57627;SDS011;43451;49.060;10.616;2023-09-18T02:06:47;10.88;;;7.03;;
57627;SDS011;43451;49.060;10.616;2023-09-18T02:11:41;8.80;;;6.18;;
57627;SDS011;43451;49.060;10.616;2023-09-18T02:14:08;8.07;;;6.20;;
57627;SDS011;43451;49.060;10.616;2023-09-18T02:16:38;9.90;;;6.18;;
57627;SDS011;43451;49.060;10.616;2023-09-18T02:19:12;7.93;;;6.63;;
57627;SDS011;43451;49.060;10.616;2023-09-18T02:21:39;8.77;;;6.65;;
57627;SDS011;43451;49.060;10.616;2023-09-18T02:24:04;9.18;;;6.45;;
57627;SDS011;43451;49.060;10.616;2023-09-18T02:26:31;10.02;;;7.38;;
57627;SDS011;43451;49.060;10.616;2023-09-18T02:29:01;9.27;;;7.43;;
57627;SDS011;43451;49.060;10.616;2023-09-18T02:31:29;10.90;;;7.68;;
57627;SDS011;43451;49.060;10.616;2023-09-18T02:33:54;11.40;;;7.40;;
57627;SDS011;43451;49.060;10.616;2023-09-18T02:36:20;9.40;;;6.78;;
57627;SDS011;43451;49.060;10.616;2023-09-18T02:38:46;10.70;;;8.13;;
57627;SDS011;43451;49.060;10.616;2023-09-18T02:41:11;11.02;;;8.25;;
57627;SDS011;43451;49.060;10.616;2023-09-18T02:43:37;10.23;;;8.35;;
57627;SDS011;43451;49.060;10.616;2023-09-18T02:46:03;9.82;;;7.88;;
57627;SDS011;43451;49.060;10.616;2023-09-18T02:48:30;9.07;;;7.65;;
57627;SDS011;43451;49.060;10.616;2023-09-18T02:50:56;9.27;;;7.32;;
57627;SDS011;43451;49.060;10.616;2023-09-18T02:53:22;8.68;;;7.78;;
57627;SDS011;43451;49.060;10.616;2023-09-18T02:55:52;8.98;;;7.90;;
57627;SDS011;43451;49.060;10.616;2023-09-18T02:58:19;8.50;;;7.45;;
57627;SDS011;43451;49.060;10.616;2023-09-18T03:00:46;9.80;;;7.97;;
57627;SDS011;43451;49.060;10.616;2023-09-18T03:05:39;11.45;;;8.57;;
57627;SDS011;43451;49.060;10.616;2023-09-18T03:08:05;11.02;;;8.85;;
57627;SDS011;43451;49.060;10.616;2023-09-18T03:10:34;10.02;;;8.95;;
57627;SDS011;43451;49.060;10.616;2023-09-18T03:13:01;10.40;;;8.95;;
57627;SDS011;43451;49.060;10.616;2023-09-18T03:15:27;13.00;;;9.68;;
57627;SDS011;43451;49.060;10.616;2023-09-18T03:17:53;11.05;;;9.18;;
57627;SDS011;43451;49.060;10.616;2023-09-18T03:20:24;11.60;;;8.68;;
57627;SDS011;43451;49.060;10.616;2023-09-18T03:22:51;9.98;;;8.88;;
57627;SDS011;43451;49.060;10.616;2023-09-18T03:25:17;10.88;;;9.40;;
57627;SDS011;43451;49.060;10.616;2023-09-18T03:27:43;10.02;;;8.80;;
57627;SDS011;43451;49.060;10.616;2023-09-18T03:30:08;11.00;;;9.60;;
57627;SDS011;43451;49.060;10.616;2023-09-18T03:32:37;11.18;;;9.45;;
57627;SDS011;43451;49.060;10.616;2023-09-18T03:35:03;12.13;;;9.05;;
57627;SDS011;43451;49.060;10.616;2023-09-18T03:37:29;10.35;;;8.68;;
57627;SDS011;43451;49.060;10.616;2023-09-18T03:39:54;10.95;;;9.00;;
57627;SDS011;43451;49.060;10.616;2023-09-18T03:42:20;10.80;;;9.35;;
57627;SDS011;43451;49.060;10.616;2023-09-18T03:44:46;10.00;;;8.55;;
57627;SDS011;43451;49.060;10.616;2023-09-18T03:47:11;13.88;;;8.82;;
57627;SDS011;43451;49.060;10.616;2023-09-18T03:49:37;11.20;;;8.95;;
57627;SDS011;43451;49.060;10.616;2023-09-18T03:52:02;9.43;;;8.05;;
57627;SDS011;43451;49.060;10.616;2023-09-18T03:54:28;9.43;;;8.43;;
57627;SDS011;43451;49.060;10.616;2023-09-18T03:56:53;10.45;;;8.25;;
57627;SDS011;43451;49.060;10.616;2023-09-18T03:59:19;10.48;;;7.93;;
57627;SDS011;43451;49.060;10.616;2023-09-18T04:01:44;10.30;;;8.52;;
57627;SDS011;43451;49.060;10.616;2023-09-18T04:04:11;9.93;;;8.55;;
57627;SDS011;43451;49.060;10.616;2023-09-18T04:06:37;11.35;;;8.70;;
57627;SDS011;43451;49.060;10.616;2023-09-18T04:09:05;9.45;;;8.20;;
57627;SDS011;43451;49.060;10.616;2023-09-18T04:11:31;10.20;;;8.07;;
57627;SDS011;43451;49.060;10.616;2023-09-18T04:13:57;11.32;;;8.38;;
57627;SDS011;43451;49.060;10.616;2023-09-18T04:16:24;10.68;;;7.82;;
57627;SDS011;43451;49.060;10.616;2023-09-18T04:18:49;9.50;;;7.80;;
57627;SDS011;43451;49.060;10.616;2023-09-18T04:21:15;10.45;;;7.90;;
57627;SDS011;43451;49.060;10.616;2023-09-18T04:23:41;9.50;;;8.25;;
57627;SDS011;43451;49.060;10.616;2023-09-18T04:26:06;9.43;;;8.02;;
57627;SDS011;43451;49.060;10.616;2023-09-18T04:28:32;8.98;;;7.88;;
57627;SDS011;43451;49.060;10.616;2023-09-18T04:30:57;8.85;;;7.82;;
57627;SDS011;43451;49.060;10.616;2023-09-18T04:33:23;8.75;;;7.85;;
57627;SDS011;43451;49.060;10.616;2023-09-18T04:35:48;9.30;;;8.07;;
57627;SDS011;43451;49.060;10.616;2023-09-18T04:38:14;9.48;;;8.32;;
57627;SDS011;43451;49.060;10.616;2023-09-18T04:40:40;10.43;;;8.32;;
57627;SDS011;43451;49.060;10.616;2023-09-18T04:43:06;10.05;;;8.23;;
57627;SDS011;43451;49.060;10.616;2023-09-18T04:45:31;10.73;;;8.45;;
57627;SDS011;43451;49.060;10.616;2023-09-18T04:47:57;10.48;;;8.07;;
57627;SDS011;43451;49.060;10.616;2023-09-18T04:50:23;9.90;;;7.65;;
57627;SDS011;43451;49.060;10.616;2023-09-18T04:52:51;11.10;;;8.40;;
57627;SDS011;43451;49.060;10.616;2023-09-18T04:55:19;9.93;;;8.60;;
57627;SDS011;43451;49.060;10.616;2023-09-18T04:57:46;12.50;;;8.93;;
57627;SDS011;43451;49.060;10.616;2023-09-18T05:00:12;10.82;;;8.50;;
57627;SDS011;43451;49.060;10.616;2023-09-18T05:02:39;10.63;;;7.97;;
57627;SDS011;43451;49.060;10.616;2023-09-18T05:05:05;10.40;;;8.73;;
57627;SDS011;43451;49.060;10.616;2023-09-18T05:07:30;8.82;;;7.82;;
57627;SDS011;43451;49.060;10.616;2023-09-18T05:09:57;11.88;;;8.63;;
57627;SDS011;43451;49.060;10.616;2023-09-18T05:12:23;10.43;;;8.45;;
57627;SDS011;43451;49.060;10.616;2023-09-18T05:14:48;8.85;;;7.95;;
57627;SDS011;43451;49.060;10.616;2023-09-18T05:17:15;10.02;;;7.93;;
57627;SDS011;43451;49.060;10.616;2023-09-18T05:19:42;10.20;;;8.07;;
57627;SDS011;43451;49.060;10.616;2023-09-18T05:22:08;10.32;;;8.05;;
57627;SDS011;43451;49.060;10.616;2023-09-18T05:24:38;11.02;;;8.50;;
57627;SDS011;43451;49.060;10.616;2023-09-18T05:27:04;11.25;;;8.65;;
57627;SDS011;43451;49.060;10.616;2023-09-18T05:29:33;10.40;;;8.88;;
57627;SDS011;43451;49.060;10.616;2023-09-18T05:32:00;10.77;;;8.70;;
57627;SDS011;43451;49.060;10.616;2023-09-18T05:34:25;10.75;;;8.82;;
57627;SDS011;43451;49.060;10.616;2023-09-18T05:36:51;12.02;;;9.07;;
57627;SDS011;43451;49.060;10.616;2023-09-18T05:39:16;10.23;;;8.35;;
57627;SDS011;43451;49.060;10.616;2023-09-18T05:41:42;11.20;;;8.52;;
57627;SDS011;43451;49.060;10.616;2023-09-18T05:44:08;11.02;;;8.32;;
57627;SDS011;43451;49.060;10.616;2023-09-18T05:46:37;10.07;;;8.18;;
57627;SDS011;43451;49.060;10.616;2023-09-18T05:49:02;10.57;;;8.88;;
57627;SDS011;43451;49.060;10.616;2023-09-18T05:51:29;10.57;;;8.77;;
57627;SDS011;43451;49.060;10.616;2023-09-18T05:53:56;10.23;;;8.90;;
57627;SDS011;43451;49.060;10.616;2023-09-18T05:56:21;9.77;;;7.95;;
57627;SDS011;43451;49.060;10.616;2023-09-18T05:58:49;9.52;;;8.27;;
57627;SDS011;43451;49.060;10.616;2023-09-18T06:01:14;9.68;;;8.20;;
57627;SDS011;43451;49.060;10.616;2023-09-18T06:03:40;9.45;;;8.30;;
57627;SDS011;43451;49.060;10.616;2023-09-18T06:06:05;9.82;;;8.63;;
57627;SDS011;43451;49.060;10.616;2023-09-18T06:08:31;11.63;;;8.38;;
57627;SDS011;43451;49.060;10.616;2023-09-18T06:10:58;9.23;;;8.20;;
57627;SDS011;43451;49.060;10.616;2023-09-18T06:13:24;10.80;;;8.55;;
57627;SDS011;43451;49.060;10.616;2023-09-18T06:15:50;9.60;;;8.25;;
57627;SDS011;43451;49.060;10.616;2023-09-18T06:18:18;11.43;;;8.70;;
57627;SDS011;43451;49.060;10.616;2023-09-18T06:20:46;10.27;;;9.18;;
57627;SDS011;43451;49.060;10.616;2023-09-18T06:23:12;9.68;;;8.50;;
57627;SDS011;43451;49.060;10.616;2023-09-18T06:25:38;10.63;;;9.18;;
57627;SDS011;43451;49.060;10.616;2023-09-18T06:28:04;10.25;;;8.98;;
57627;SDS011;43451;49.060;10.616;2023-09-18T06:30:31;13.05;;;9.50;;
57627;SDS011;43451;49.060;10.616;2023-09-18T06:32:58;10.73;;;9.20;;
57627;SDS011;43451;49.060;10.616;2023-09-18T06:35:29;10.73;;;8.90;;
57627;SDS011;43451;49.060;10.616;2023-09-18T06:37:54;9.93;;;8.52;;
57627;SDS011;43451;49.060;10.616;2023-09-18T06:40:23;10.88;;;8.75;;
57627;SDS011;43451;49.060;10.616;2023-09-18T06:42:50;11.77;;;8.65;;
57627;SDS011;43451;49.060;10.616;2023-09-18T06:45:16;11.23;;;8.82;;
57627;SDS011;43451;49.060;10.616;2023-09-18T06:47:42;11.68;;;9.05;;
57627;SDS011;43451;49.060;10.616;2023-09-18T06:50:07;10.93;;;8.98;;
57627;SDS011;43451;49.060;10.616;2023-09-18T06:52:34;15.95;;;9.13;;
57627;SDS011;43451;49.060;10.616;2023-09-18T06:54:59;11.82;;;9.60;;
57627;SDS011;43451;49.060;10.616;2023-09-18T06:57:25;10.98;;;9.07;;
57627;SDS011;43451;49.060;10.616;2023-09-18T06:59:51;14.15;;;9.70;;
57627;SDS011;43451;49.060;10.616;2023-09-18T07:02:16;11.55;;;9.25;;
57627;SDS011;43451;49.060;10.616;2023-09-18T07:04:42;10.70;;;9.60;;
57627;SDS011;43451;49.060;10.616;2023-09-18T07:07:14;11.60;;;8.63;;
57627;SDS011;43451;49.060;10.616;2023-09-18T07:09:40;12.73;;;9.32;;
57627;SDS011;43451;49.060;10.616;2023-09-18T07:12:09;12.43;;;9.17;;
57627;SDS011;43451;49.060;10.616;2023-09-18T07:14:35;10.75;;;9.45;;
57627;SDS011;43451;49.060;10.616;2023-09-18T07:17:03;10.13;;;8.98;;
57627;SDS011;43451;49.060;10.616;2023-09-18T07:19:29;12.35;;;8.13;;
57627;SDS011;43451;49.060;10.616;2023-09-18T07:21:54;10.30;;;9.18;;
57627;SDS011;43451;49.060;10.616;2023-09-18T07:24:19;10.80;;;8.93;;
57627;SDS011;43451;49.060;10.616;2023-09-18T07:26:46;10.07;;;8.50;;
57627;SDS011;43451;49.060;10.616;2023-09-18T07:29:15;10.30;;;8.57;;
57627;SDS011;43451;49.060;10.616;2023-09-18T07:31:42;10.52;;;7.90;;
57627;SDS011;43451;49.060;10.616;2023-09-18T07:34:08;11.75;;;9.00;;
57627;SDS011;43451;49.060;10.616;2023-09-18T07:36:34;9.75;;;8.60;;
57627;SDS011;43451;49.060;10.616;2023-09-18T07:39:00;9.95;;;8.73;;
57627;SDS011;43451;49.060;10.616;2023-09-18T07:41:26;11.57;;;8.73;;
57627;SDS011;43451;49.060;10.616;2023-09-18T07:43:51;9.68;;;8.18;;
57627;SDS011;43451;49.060;10.616;2023-09-18T07:46:16;11.55;;;7.88;;
57627;SDS011;43451;49.060;10.616;2023-09-18T07:48:42;11.15;;;8.35;;
57627;SDS011;43451;49.060;10.616;2023-09-18T07:51:14;10.90;;;7.85;;
57627;SDS011;43451;49.060;10.616;2023-09-18T07:53:41;9.35;;;7.05;;
57627;SDS011;43451;49.060;10.616;2023-09-18T07:56:06;10.32;;;7.40;;
57627;SDS011;43451;49.060;10.616;2023-09-18T07:58:32;12.57;;;7.40;;
57627;SDS011;43451;49.060;10.616;2023-09-18T08:00:58;9.27;;;6.95;;
57627;SDS011;43451;49.060;10.616;2023-09-18T08:03:25;9.98;;;6.85;;
57627;SDS011;43451;49.060;10.616;2023-09-18T08:05:54;10.80;;;6.97;;
57627;SDS011;43451;49.060;10.616;2023-09-18T08:08:20;8.88;;;7.32;;
57627;SDS011;43451;49.060;10.616;2023-09-18T08:10:47;9.93;;;6.87;;
57627;SDS011;43451;49.060;10.616;2023-09-18T08:13:13;11.13;;;7.45;;
57627;SDS011;43451;49.060;10.616;2023-09-18T08:15:38;8.52;;;6.30;;
57627;SDS011;43451;49.060;10.616;2023-09-18T08:18:04;10.02;;;6.70;;
57627;SDS011;43451;49.060;10.616;2023-09-18T08:20:30;11.20;;;6.47;;
57627;SDS011;43451;49.060;10.616;2023-09-18T08:22:56;8.90;;;6.10;;
57627;SDS011;43451;49.060;10.616;2023-09-18T08:25:21;10.65;;;6.90;;
57627;SDS011;43451;49.060;10.616;2023-09-18T08:27:47;9.52;;;6.50;;
57627;SDS011;43451;49.060;10.616;2023-09-18T08:30:13;8.27;;;5.90;;
57627;SDS011;43451;49.060;10.616;2023-09-18T08:32:39;9.15;;;5.75;;
57627;SDS011;43451;49.060;10.616;2023-09-18T08:35:06;8.30;;;5.43;;
57627;SDS011;43451;49.060;10.616;2023-09-18T08:37:32;6.70;;;5.30;;
57627;SDS011;43451;49.060;10.616;2023-09-18T08:39:57;8.07;;;5.25;;
57627;SDS011;43451;49.060;10.616;2023-09-18T08:42:25;11.68;;;5.57;;
57627;SDS011;43451;49.060;10.616;2023-09-18T08:44:55;8.80;;;4.80;;
57627;SDS011;43451;49.060;10.616;2023-09-18T08:47:23;11.18;;;4.60;;
57627;SDS011;43451;49.060;10.616;2023-09-18T08:49:50;7.85;;;4.03;;
57627;SDS011;43451;49.060;10.616;2023-09-18T08:52:18;7.47;;;4.20;;
57627;SDS011;43451;49.060;10.616;2023-09-18T08:54:44;6.82;;;4.40;;
57627;SDS011;43451;49.060;10.616;2023-09-18T08:57:11;10.05;;;4.70;;
57627;SDS011;43451;49.060;10.616;2023-09-18T08:59:37;8.80;;;5.00;;
57627;SDS011;43451;49.060;10.616;2023-09-18T09:02:05;11.05;;;4.82;;
57627;SDS011;43451;49.060;10.616;2023-09-18T09:04:31;6.75;;;3.53;;
57627;SDS011;43451;49.060;10.616;2023-09-18T09:06:57;7.07;;;3.30;;
57627;SDS011;43451;49.060;10.616;2023-09-18T09:09:24;14.88;;;3.85;;
57627;SDS011;43451;49.060;10.616;2023-09-18T09:11:51;9.88;;;3.60;;
57627;SDS011;43451;49.060;10.616;2023-09-18T09:14:17;13.02;;;3.40;;
57627;SDS011;43451;49.060;10.616;2023-09-18T09:16:46;7.32;;;3.15;;
57627;SDS011;43451;49.060;10.616;2023-09-18T09:19:15;7.80;;;3.00;;
57627;SDS011;43451;49.060;10.616;2023-09-18T09:21:44;10.00;;;2.45;;
57627;SDS011;43451;49.060;10.616;2023-09-18T09:24:11;7.22;;;1.65;;
57627;SDS011;43451;49.060;10.616;2023-09-18T09:26:39;4.45;;;1.50;;
57627;SDS011;43451;49.060;10.616;2023-09-18T09:29:14;8.85;;;1.70;;
57627;SDS011;43451;49.060;10.616;2023-09-18T09:31:43;6.38;;;1.50;;
57627;SDS011;43451;49.060;10.616;2023-09-18T09:34:09;13.38;;;1.95;;
57627;SDS011;43451;49.060;10.616;2023-09-18T09:36:34;6.28;;;1.48;;
57627;SDS011;43451;49.060;10.616;2023-09-18T09:39:00;9.07;;;1.77;;
57627;SDS011;43451;49.060;10.616;2023-09-18T09:41:29;4.45;;;1.60;;
57627;SDS011;43451;49.060;10.616;2023-09-18T09:43:57;4.45;;;1.45;;
57627;SDS011;43451;49.060;10.616;2023-09-18T09:46:23;6.07;;;1.35;;
57627;SDS011;43451;49.060;10.616;2023-09-18T09:49:03;8.93;;;1.65;;
57627;SDS011;43451;49.060;10.616;2023-09-18T09:51:30;8.48;;;1.60;;
57627;SDS011;43451;49.060;10.616;2023-09-18T09:53:57;3.90;;;1.23;;
57627;SDS011;43451;49.060;10.616;2023-09-18T09:59:18;4.28;;;1.30;;
57627;SDS011;43451;49.060;10.616;2023-09-18T10:01:48;2.90;;;1.38;;
57627;SDS011;43451;49.060;10.616;2023-09-18T10:04:15;5.00;;;1.42;;
57627;SDS011;43451;49.060;10.616;2023-09-18T10:06:52;4.97;;;1.40;;
57627;SDS011;43451;49.060;10.616;2023-09-18T10:09:23;6.25;;;1.85;;
57627;SDS011;43451;49.060;10.616;2023-09-18T10:11:54;6.20;;;1.98;;
57627;SDS011;43451;49.060;10.616;2023-09-18T10:14:31;5.75;;;1.50;;
57627;SDS011;43451;49.060;10.616;2023-09-18T10:17:01;7.78;;;1.65;;
57627;SDS011;43451;49.060;10.616;2023-09-18T10:19:54;6.75;;;1.70;;
57627;SDS011;43451;49.060;10.616;2023-09-18T10:22:39;6.05;;;1.60;;
57627;SDS011;43451;49.060;10.616;2023-09-18T10:25:15;6.38;;;1.48;;
57627;SDS011;43451;49.060;10.616;2023-09-18T10:27:45;8.55;;;1.50;;
57627;SDS011;43451;49.060;10.616;2023-09-18T10:30:23;4.32;;;1.23;;
57627;SDS011;43451;49.060;10.616;2023-09-18T10:32:50;5.38;;;1.20;;
57627;SDS011;43451;49.060;10.616;2023-09-18T10:35:16;4.55;;;1.42;;
57627;SDS011;43451;49.060;10.616;2023-09-18T10:37:45;4.10;;;1.50;;
57627;SDS011;43451;49.060;10.616;2023-09-18T10:40:11;4.80;;;1.10;;
57627;SDS011;43451;49.060;10.616;2023-09-18T10:42:38;5.22;;;1.20;;
57627;SDS011;43451;49.060;10.616;2023-09-18T10:45:06;5.22;;;1.02;;
57627;SDS011;43451;49.060;10.616;2023-09-18T10:47:36;4.07;;;1.00;;
57627;SDS011;43451;49.060;10.616;2023-09-18T10:50:06;3.10;;;0.98;;
57627;SDS011;43451;49.060;10.616;2023-09-18T10:52:43;4.22;;;1.20;;
57627;SDS011;43451;49.060;10.616;2023-09-18T10:55:12;4.60;;;1.10;;
57627;SDS011;43451;49.060;10.616;2023-09-18T10:57:51;3.33;;;1.05;;
57627;SDS011;43451;49.060;10.616;2023-09-18T11:00:18;2.75;;;0.90;;
57627;SDS011;43451;49.060;10.616;2023-09-18T11:02:48;6.32;;;1.05;;
57627;SDS011;43451;49.060;10.616;2023-09-18T11:05:26;1.70;;;0.93;;
57627;SDS011;43451;49.060;10.616;2023-09-18T11:11:01;4.25;;;1.10;;
57627;SDS011;43451;49.060;10.616;2023-09-18T11:21:25;3.22;;;1.40;;
57627;SDS011;43451;49.060;10.616;2023-09-18T11:24:02;6.30;;;1.50;;
57627;SDS011;43451;49.060;10.616;2023-09-18T11:26:30;4.78;;;1.40;;
57627;SDS011;43451;49.060;10.616;2023-09-18T11:28:58;4.07;;;1.20;;
57627;SDS011;43451;49.060;10.616;2023-09-18T11:34:27;4.03;;;1.10;;
57627;SDS011;43451;49.060;10.616;2023-09-18T11:36:56;6.30;;;1.30;;
57627;SDS011;43451;49.060;10.616;2023-09-18T11:39:39;4.28;;;1.30;;
57627;SDS011;43451;49.060;10.616;2023-09-18T11:44:38;6.20;;;1.25;;
57627;SDS011;43451;49.060;10.616;2023-09-18T11:47:09;5.68;;;1.40;;
57627;SDS011;43451;49.060;10.616;2023-09-18T11:52:24;4.95;;;1.30;;
57627;SDS011;43451;49.060;10.616;2023-09-18T11:54:51;6.38;;;1.30;;
57627;SDS011;43451;49.060;10.616;2023-09-18T11:57:17;3.67;;;1.30;;
57627;SDS011;43451;49.060;10.616;2023-09-18T11:59:44;4.05;;;1.20;;
57627;SDS011;43451;49.060;10.616;2023-09-18T12:02:25;5.50;;;1.40;;
57627;SDS011;43451;49.060;10.616;2023-09-18T12:05:04;6.00;;;1.10;;
57627;SDS011;43451;49.060;10.616;2023-09-18T12:07:31;2.42;;;0.88;;
57627;SDS011;43451;49.060;10.616;2023-09-18T12:09:57;4.22;;;1.10;;
57627;SDS011;43451;49.060;10.616;2023-09-18T12:12:23;1.92;;;0.80;;
57627;SDS011;43451;49.060;10.616;2023-09-18T12:14:51;2.40;;;0.95;;
57627;SDS011;43451;49.060;10.616;2023-09-18T12:17:17;5.50;;;0.90;;
57627;SDS011;43451;49.060;10.616;2023-09-18T12:19:53;2.92;;;0.82;;
57627;SDS011;43451;49.060;10.616;2023-09-18T12:22:23;2.55;;;0.93;;
57627;SDS011;43451;49.060;10.616;2023-09-18T12:24:50;3.80;;;1.08;;
57627;SDS011;43451;49.060;10.616;2023-09-18T12:27:15;3.47;;;1.00;;
57627;SDS011;43451;49.060;10.616;2023-09-18T12:29:42;4.15;;;1.17;;
57627;SDS011;43451;49.060;10.616;2023-09-18T12:32:11;3.83;;;1.08;;
57627;SDS011;43451;49.060;10.616;2023-09-18T12:34:40;5.57;;;0.90;;
57627;SDS011;43451;49.060;10.616;2023-09-18T12:37:08;3.97;;;1.08;;
57627;SDS011;43451;49.060;10.616;2023-09-18T12:39:36;3.33;;;1.08;;
57627;SDS011;43451;49.060;10.616;2023-09-18T12:42:03;2.67;;;0.90;;
57627;SDS011;43451;49.060;10.616;2023-09-18T12:44:29;2.47;;;0.95;;
57627;SDS011;43451;49.060;10.616;2023-09-18T12:46:55;4.07;;;1.20;;
57627;SDS011;43451;49.060;10.616;2023-09-18T12:49:24;4.93;;;1.23;;
57627;SDS011;43451;49.060;10.616;2023-09-18T12:51:58;4.40;;;1.20;;
57627;SDS011;43451;49.060;10.616;2023-09-18T12:54:44;2.58;;;1.00;;
57627;SDS011;43451;49.060;10.616;2023-09-18T12:57:10;3.67;;;1.00;;
57627;SDS011;43451;49.060;10.616;2023-09-18T12:59:40;2.40;;;0.90;;
57627;SDS011;43451;49.060;10.616;2023-09-18T13:02:06;3.28;;;1.33;;
57627;SDS011;43451;49.060;10.616;2023-09-18T13:04:32;4.30;;;1.13;;
57627;SDS011;43451;49.060;10.616;2023-09-18T13:07:11;3.58;;;0.98;;
57627;SDS011;43451;49.060;10.616;2023-09-18T13:09:38;1.50;;;0.90;;
57627;SDS011;43451;49.060;10.616;2023-09-18T13:12:07;3.08;;;0.90;;
57627;SDS011;43451;49.060;10.616;2023-09-18T13:17:43;4.03;;;1.30;;
57627;SDS011;43451;49.060;10.616;2023-09-18T13:20:11;2.38;;;1.05;;
57627;SDS011;43451;49.060;10.616;2023-09-18T13:22:41;2.92;;;1.10;;
57627;SDS011;43451;49.060;10.616;2023-09-18T13:25:08;3.30;;;1.20;;
57627;SDS011;43451;49.060;10.616;2023-09-18T13:27:36;2.85;;;1.10;;
57627;SDS011;43451;49.060;10.616;2023-09-18T13:30:02;3.83;;;1.20;;
57627;SDS011;43451;49.060;10.616;2023-09-18T13:32:33;3.80;;;1.35;;
57627;SDS011;43451;49.060;10.616;2023-09-18T13:34:59;2.42;;;1.20;;
57627;SDS011;43451;49.060;10.616;2023-09-18T13:37:25;6.32;;;1.15;;
57627;SDS011;43451;49.060;10.616;2023-09-18T13:39:52;3.58;;;1.17;;
57627;SDS011;43451;49.060;10.616;2023-09-18T13:42:17;2.25;;;1.00;;
57627;SDS011;43451;49.060;10.616;2023-09-18T13:44:43;2.58;;;1.00;;
57627;SDS011;43451;49.060;10.616;2023-09-18T13:47:12;4.70;;;1.10;;
57627;SDS011;43451;49.060;10.616;2023-09-18T13:49:38;2.90;;;1.00;;
57627;SDS011;43451;49.060;10.616;2023-09-18T13:52:03;2.95;;;1.10;;
57627;SDS011;43451;49.060;10.616;2023-09-18T13:54:29;2.38;;;0.98;;
57627;SDS011;43451;49.060;10.616;2023-09-18T13:56:55;1.95;;;0.98;;
57627;SDS011;43451;49.060;10.616;2023-09-18T13:59:21;2.92;;;1.20;;
57627;SDS011;43451;49.060;10.616;2023-09-18T14:01:46;2.88;;;1.20;;
57627;SDS011;43451;49.060;10.616;2023-09-18T14:04:12;2.95;;;1.30;;
57627;SDS011;43451;49.060;10.616;2023-09-18T14:06:38;3.88;;;1.17;;
57627;SDS011;43451;49.060;10.616;2023-09-18T14:09:03;4.75;;;1.27;;
57627;SDS011;43451;49.060;10.616;2023-09-18T14:11:31;4.20;;;1.20;;
57627;SDS011;43451;49.060;10.616;2023-09-18T14:13:56;2.28;;;1.20;;
57627;SDS011;43451;49.060;10.616;2023-09-18T14:16:22;4.03;;;1.50;;
57627;SDS011;43451;49.060;10.616;2023-09-18T14:18:47;3.08;;;1.45;;
57627;SDS011;43451;49.060;10.616;2023-09-18T14:21:13;3.42;;;1.58;;
57627;SDS011;43451;49.060;10.616;2023-09-18T14:23:39;3.03;;;1.48;;
57627;SDS011;43451;49.060;10.616;2023-09-18T14:26:04;3.80;;;1.40;;
57627;SDS011;43451;49.060;10.616;2023-09-18T14:28:30;3.80;;;1.60;;
57627;SDS011;43451;49.060;10.616;2023-09-18T14:30:57;3.92;;;1.65;;
57627;SDS011;43451;49.060;10.616;2023-09-18T14:33:23;3.47;;;1.60;;
57627;SDS011;43451;49.060;10.616;2023-09-18T14:35:49;4.68;;;1.60;;
57627;SDS011;43451;49.060;10.616;2023-09-18T14:38:15;2.92;;;1.60;;
57627;SDS011;43451;49.060;10.616;2023-09-18T14:40:41;3.78;;;1.67;;
57627;SDS011;43451;49.060;10.616;2023-09-18T14:43:07;2.22;;;1.60;;
57627;SDS011;43451;49.060;10.616;2023-09-18T14:45:33;2.97;;;1.42;;
57627;SDS011;43451;49.060;10.616;2023-09-18T14:47:59;3.75;;;1.40;;
57627;SDS011;43451;49.060;10.616;2023-09-18T14:50:25;3.60;;;1.58;;
57627;SDS011;43451;49.060;10.616;2023-09-18T14:52:50;3.92;;;1.70;;
57627;SDS011;43451;49.060;10.616;2023-09-18T14:55:16;4.47;;;1.60;;
57627;SDS011;43451;49.060;10.616;2023-09-18T14:57:42;4.10;;;1.70;;
57627;SDS011;43451;49.060;10.616;2023-09-18T15:00:07;5.75;;;1.65;;
57627;SDS011;43451;49.060;10.616;2023-09-18T15:02:33;4.35;;;1.98;;
57627;SDS011;43451;49.060;10.616;2023-09-18T15:05:00;3.80;;;1.67;;